Time;durP1;ratioP1;P1;durP2;ratioP2;P2;SDS_P1;SDS_P2;PMS_P1;PMS_P2;Temp;Humidity;BMP_temperature;BMP_pressure;BME280_temperature;BME280_humidity;BME280_pressure;Samples;Min_cycle;Max_cycle;Signal;HPM_P1;HPM_P2
2023/10/28 00:01:35;;;;;;;0.93;0.77;;;;;;;12.80;nan;98119.25;4906406;29;20601;-78
2023/10/28 00:04:02;;;;;;;2.10;0.80;;;;;;;12.82;nan;98120.75;4902812;29;20231;-79
2023/10/28 00:06:28;;;;;;;2.45;1.17;;;;;;;12.83;nan;98122.41;4900998;29;20261;-79
2023/10/28 00:08:54;;;;;;;1.65;0.90;;;;;;;12.83;nan;98130.31;4904321;29;20203;-79
2023/10/28 00:11:19;;;;;;;3.23;1.23;;;;;;;12.83;nan;98127.69;4902840;29;20217;-79
2023/10/28 00:13:45;;;;;;;1.43;0.87;;;;;;;12.85;nan;98127.53;4904859;29;20198;-79
2023/10/28 00:16:11;;;;;;;1.60;0.90;;;;;;;12.84;nan;98124.06;4906787;29;20286;-79
2023/10/28 00:18:37;;;;;;;1.00;0.70;;;;;;;12.85;nan;98130.16;4908738;29;20241;-79
2023/10/28 00:21:03;;;;;;;2.43;1.00;;;;;;;12.85;nan;98135.44;4912570;29;20992;-79
2023/10/28 00:23:31;;;;;;;4.28;1.00;;;;;;;12.84;nan;98134.59;4909455;29;20821;-79
2023/10/28 00:26:01;;;;;;;2.95;1.30;;;;;;;12.87;nan;98130.03;4912057;29;20307;-80
2023/10/28 00:28:27;;;;;;;8.23;1.20;;;;;;;12.87;nan;98125.56;4911112;29;20206;-79
2023/10/28 00:30:52;;;;;;;1.43;1.07;;;;;;;12.83;nan;98126.88;4908748;29;20236;-79
2023/10/28 00:33:18;;;;;;;2.30;1.07;;;;;;;12.88;nan;98134.31;4911251;29;20233;-79
2023/10/28 00:35:44;;;;;;;3.60;2.13;;;;;;;12.88;nan;98129.03;4916832;29;20206;-79
2023/10/28 00:38:09;;;;;;;3.33;0.97;;;;;;;12.88;nan;98129.88;4920728;29;20202;-78
2023/10/28 00:40:35;;;;;;;0.80;0.67;;;;;;;12.87;nan;98136.13;4916821;29;20490;-79
2023/10/28 00:43:00;;;;;;;5.03;1.10;;;;;;;12.89;nan;98141.25;4922172;29;20285;-79
2023/10/28 00:45:29;;;;;;;1.73;1.00;;;;;;;12.88;nan;98145.69;4915629;29;20222;-79
2023/10/28 00:47:56;;;;;;;3.42;1.17;;;;;;;12.91;nan;98152.44;4916482;29;20203;-79
2023/10/28 00:50:23;;;;;;;1.30;0.95;;;;;;;12.89;nan;98152.63;4917501;29;20230;-79
2023/10/28 00:52:52;;;;;;;3.17;0.95;;;;;;;12.88;nan;98150.97;4920558;29;20202;-78
2023/10/28 00:55:20;;;;;;;3.35;0.98;;;;;;;12.89;nan;98157.06;4920826;29;20187;-79
2023/10/28 00:57:47;;;;;;;1.45;0.90;;;;;;;12.89;nan;98144.72;4898475;29;20266;-78
2023/10/28 01:00:14;;;;;;;3.10;1.00;;;;;;;12.89;nan;98151.78;4909753;29;20228;-77
2023/10/28 01:02:42;;;;;;;1.48;1.17;;;;;;;12.88;nan;98150.97;4903223;29;20207;-79
2023/10/28 01:05:11;;;;;;;2.55;1.38;;;;;;;12.87;nan;98153.75;4891654;29;20257;-80
2023/10/28 01:07:38;;;;;;;2.85;1.10;;;;;;;12.86;nan;98152.91;4905154;29;20189;-77
2023/10/28 01:10:04;;;;;;;4.93;1.45;;;;;;;12.87;nan;98146.66;4885729;29;20313;-77
2023/10/28 01:12:30;;;;;;;2.45;1.15;;;;;;;12.88;nan;98156.25;4899448;29;20210;-77
2023/10/28 01:14:56;;;;;;;2.90;1.23;;;;;;;12.88;nan;98152.75;4882788;29;20225;-77
2023/10/28 01:17:25;;;;;;;5.10;1.10;;;;;;;12.88;nan;98142.22;4903264;29;20187;-77
2023/10/28 01:19:52;;;;;;;2.60;0.90;;;;;;;12.89;nan;98146.53;4902587;29;20205;-77
2023/10/28 01:22:17;;;;;;;1.85;0.90;;;;;;;12.90;nan;98146.34;4904892;29;20206;-77
2023/10/28 01:24:43;;;;;;;0.80;0.70;;;;;;;12.92;nan;98152.31;4900961;29;20219;-78
2023/10/28 01:27:09;;;;;;;2.10;0.80;;;;;;;12.92;nan;98147.03;4886530;29;20735;-77
2023/10/28 01:29:35;;;;;;;4.18;1.30;;;;;;;12.97;nan;98151.88;4899198;29;20228;-79
2023/10/28 01:32:03;;;;;;;3.63;1.17;;;;;;;12.96;nan;98151.06;4900721;29;20210;-78
2023/10/28 01:34:28;;;;;;;1.52;0.93;;;;;;;12.96;nan;98143.16;4903948;29;20217;-78
2023/10/28 01:36:57;;;;;;;4.27;1.20;;;;;;;12.98;nan;98149.06;4902996;29;20317;-78
2023/10/28 01:39:23;;;;;;;2.45;0.82;;;;;;;13.00;nan;98138.41;4904529;29;20261;-79
2023/10/28 01:41:49;;;;;;;1.07;0.90;;;;;;;13.00;nan;98141.84;4901079;29;20207;-78
2023/10/28 01:44:16;;;;;;;2.50;1.10;;;;;;;13.01;nan;98140.88;4896049;29;20215;-78
2023/10/28 01:46:41;;;;;;;1.55;0.93;;;;;;;12.97;nan;98134.25;4903604;29;20202;-78
2023/10/28 01:49:08;;;;;;;0.90;0.80;;;;;;;13.00;nan;98136.59;4900505;29;20219;-78
2023/10/28 01:51:33;;;;;;;2.00;1.05;;;;;;;13.01;nan;98140.88;4887900;29;20269;-78
2023/10/28 01:53:59;;;;;;;1.57;0.97;;;;;;;12.96;nan;98132.59;4882099;29;20199;-78
2023/10/28 01:56:24;;;;;;;2.50;1.30;;;;;;;12.95;nan;98144.09;4893756;29;20205;-78
2023/10/28 01:58:50;;;;;;;1.10;0.70;;;;;;;12.94;nan;98128.47;4888135;29;20198;-78
2023/10/28 02:01:15;;;;;;;0.80;0.77;;;;;;;12.94;nan;98155.63;4875442;29;20199;-78
2023/10/28 02:03:41;;;;;;;2.10;1.67;;;;;;;12.95;nan;98154.66;4891148;29;20218;-78
2023/10/28 02:06:07;;;;;;;1.07;0.80;;;;;;;12.94;nan;98147.72;4886335;29;20190;-78
2023/10/28 02:08:32;;;;;;;1.30;0.90;;;;;;;12.95;nan;98149.38;4874577;29;20215;-78
2023/10/28 02:10:58;;;;;;;1.83;0.70;;;;;;;12.94;nan;98139.81;4870224;29;20210;-78
2023/10/28 02:13:23;;;;;;;3.23;0.90;;;;;;;12.94;nan;98139.81;4890394;29;20577;-78
2023/10/28 02:15:49;;;;;;;1.00;0.90;;;;;;;12.94;nan;98134.56;4892963;29;20277;-78
2023/10/28 02:18:18;;;;;;;1.00;0.70;;;;;;;12.94;nan;98134.56;4901174;29;20198;-78
2023/10/28 02:20:45;;;;;;;1.88;0.95;;;;;;;12.92;nan;98125.97;4896179;29;20768;-77
2023/10/28 02:23:13;;;;;;;1.25;1.00;;;;;;;12.90;nan;98120.00;4893821;29;20266;-78
2023/10/28 02:25:42;;;;;;;1.77;0.77;;;;;;;12.90;nan;98117.38;4897223;29;20233;-78
2023/10/28 02:28:09;;;;;;;1.02;0.90;;;;;;;12.88;nan;98114.06;4893041;29;20202;-78
2023/10/28 02:30:41;;;;;;;1.55;0.90;;;;;;;12.87;nan;98114.22;4894892;29;20826;-78
2023/10/28 02:33:07;;;;;;;2.45;1.20;;;;;;;12.83;nan;98113.69;4895655;29;20199;-79
2023/10/28 02:35:36;;;;;;;1.20;0.95;;;;;;;12.78;nan;98110.66;4898494;29;20206;-79
2023/10/28 02:38:01;;;;;;;1.55;1.23;;;;;;;12.72;nan;98113.88;4889778;29;20213;-79
2023/10/28 02:40:27;;;;;;;4.07;1.13;;;;;;;12.67;nan;98113.50;4893230;29;20194;-78
2023/10/28 02:42:52;;;;;;;1.80;0.90;;;;;;;12.64;nan;98112.00;4899897;29;20222;-78
2023/10/28 02:45:17;;;;;;;0.87;0.77;;;;;;;12.58;nan;98113.41;4899391;29;20325;-78
2023/10/28 02:47:43;;;;;;;2.73;0.93;;;;;;;12.59;nan;98116.88;4875223;29;20214;-78
2023/10/28 02:50:10;;;;;;;1.75;1.20;;;;;;;12.56;nan;98115.38;4877791;29;20297;-78
2023/10/28 02:52:37;;;;;;;2.92;0.90;;;;;;;12.57;nan;98108.28;4894117;29;20313;-78
2023/10/28 02:55:02;;;;;;;1.17;0.70;;;;;;;12.54;nan;98104.13;4899325;29;20451;-78
2023/10/28 02:57:28;;;;;;;1.50;0.97;;;;;;;12.53;nan;98099.84;4876770;29;20210;-78
2023/10/28 02:59:53;;;;;;;1.47;0.87;;;;;;;12.53;nan;98099.84;4893664;29;20210;-76
2023/10/28 03:02:19;;;;;;;1.13;0.70;;;;;;;12.52;nan;98106.09;4878619;29;20214;-76
2023/10/28 03:04:45;;;;;;;4.10;0.70;;;;;;;12.50;nan;98094.88;4894792;29;21144;-77
2023/10/28 03:07:10;;;;;;;1.20;1.00;;;;;;;12.50;nan;98105.41;4898358;29;21433;-77
2023/10/28 03:09:35;;;;;;;1.03;0.70;;;;;;;12.50;nan;98100.16;4892792;29;20195;-77
2023/10/28 03:12:01;;;;;;;3.17;1.00;;;;;;;12.49;nan;98106.38;4896809;29;20301;-76
2023/10/28 03:14:26;;;;;;;1.87;0.80;;;;;;;12.47;nan;98110.97;4863678;29;20605;-77
2023/10/28 03:16:52;;;;;;;1.43;0.97;;;;;;;12.46;nan;98103.22;4897786;29;20198;-77
2023/10/28 03:19:18;;;;;;;1.10;0.70;;;;;;;12.42;nan;98107.94;4874348;29;20206;-77
2023/10/28 03:21:43;;;;;;;2.10;0.90;;;;;;;12.39;nan;98121.38;4901712;29;20206;-77
2023/10/28 03:24:09;;;;;;;3.50;1.17;;;;;;;12.38;nan;98115.31;4898463;29;21133;-77
2023/10/28 03:26:34;;;;;;;1.73;0.90;;;;;;;12.39;nan;98113.50;4881782;29;20214;-77
2023/10/28 03:28:59;;;;;;;3.23;0.90;;;;;;;12.39;nan;98114.34;4875765;29;20202;-77
2023/10/28 03:31:26;;;;;;;1.13;0.73;;;;;;;12.40;nan;98109.91;4893568;29;20202;-77
2023/10/28 03:33:51;;;;;;;1.55;0.70;;;;;;;12.42;nan;98113.19;4898963;29;20186;-77
2023/10/28 03:36:17;;;;;;;2.23;1.00;;;;;;;12.42;nan;98102.66;4903533;29;20214;-76
2023/10/28 03:38:43;;;;;;;1.37;1.00;;;;;;;12.42;nan;98092.13;4892685;29;20469;-77
2023/10/28 03:41:09;;;;;;;2.03;0.90;;;;;;;12.41;nan;98101.00;4879497;29;20461;-77
2023/10/28 03:43:35;;;;;;;3.05;1.00;;;;;;;12.40;nan;98104.63;4898010;29;20214;-77
2023/10/28 03:46:00;;;;;;;1.03;0.80;;;;;;;12.41;nan;98103.66;4895587;29;20253;-77
2023/10/28 03:48:26;;;;;;;1.70;0.90;;;;;;;12.40;nan;98105.47;4893817;29;20256;-77
2023/10/28 03:51:04;;;;;;;3.53;1.03;;;;;;;12.40;nan;98099.38;4893338;29;20253;-77
2023/10/28 03:53:30;;;;;;;1.42;0.80;;;;;;;12.39;nan;98098.53;4897422;29;20209;-77
2023/10/28 03:55:56;;;;;;;1.20;0.85;;;;;;;12.36;nan;98104.06;4892928;29;20270;-76
2023/10/28 03:58:22;;;;;;;1.93;1.20;;;;;;;12.35;nan;98094.53;4896513;29;20215;-77
2023/10/28 04:00:53;;;;;;;2.38;0.80;;;;;;;12.34;nan;98102.56;4895412;29;21052;-76
2023/10/28 04:03:23;;;;;;;1.15;0.77;;;;;;;12.34;nan;98102.56;4894534;29;20203;-76
2023/10/28 04:05:49;;;;;;;3.08;1.00;;;;;;;12.33;nan;98095.66;4900816;29;20221;-77
2023/10/28 04:08:15;;;;;;;3.70;0.80;;;;;;;12.33;nan;98101.75;4896885;29;20206;-76
2023/10/28 04:10:41;;;;;;;1.70;1.03;;;;;;;12.34;nan;98094.66;4901668;29;20213;-76
2023/10/28 04:13:06;;;;;;;0.93;0.73;;;;;;;12.35;nan;98107.69;4895796;29;20198;-76
2023/10/28 04:15:32;;;;;;;3.80;1.00;;;;;;;12.37;nan;98104.94;4898247;29;20201;-76
2023/10/28 04:17:57;;;;;;;1.13;0.83;;;;;;;12.36;nan;98095.34;4901076;29;20214;-77
2023/10/28 04:20:23;;;;;;;1.80;0.83;;;;;;;12.37;nan;98104.94;4904720;29;20206;-77
2023/10/28 04:22:49;;;;;;;1.67;0.87;;;;;;;12.38;nan;98101.31;4899452;29;20578;-77
2023/10/28 04:25:14;;;;;;;1.03;0.90;;;;;;;12.40;nan;98094.09;4898651;29;20210;-77
2023/10/28 04:27:40;;;;;;;1.20;0.70;;;;;;;12.41;nan;98095.75;4899000;29;21047;-77
2023/10/28 04:30:08;;;;;;;2.25;0.95;;;;;;;12.43;nan;98096.44;4896513;29;20725;-76
2023/10/28 04:32:33;;;;;;;2.65;0.90;;;;;;;12.43;nan;98093.81;4900470;29;20218;-76
2023/10/28 04:34:59;;;;;;;0.83;0.80;;;;;;;12.45;nan;98091.00;4897773;29;20198;-76
2023/10/28 04:37:25;;;;;;;2.60;1.20;;;;;;;12.49;nan;98090.56;4902473;29;20446;-77
2023/10/28 04:39:51;;;;;;;1.40;0.77;;;;;;;12.51;nan;98086.00;4897368;29;21668;-77
2023/10/28 04:42:18;;;;;;;2.60;1.20;;;;;;;12.58;nan;98087.06;4895911;29;20250;-77
2023/10/28 04:44:44;;;;;;;3.63;0.88;;;;;;;12.61;nan;98092.03;4890306;29;20505;-76
2023/10/28 04:47:09;;;;;;;3.00;1.20;;;;;;;12.66;nan;98090.75;4890808;29;20281;-77
2023/10/28 04:49:34;;;;;;;2.43;1.00;;;;;;;12.67;nan;98081.91;4890989;29;20234;-77
2023/10/28 04:52:00;;;;;;;3.73;1.23;;;;;;;12.72;nan;98098.06;4901888;29;20209;-76
2023/10/28 04:54:25;;;;;;;1.27;0.93;;;;;;;12.75;nan;98088.06;4899480;29;20301;-77
2023/10/28 04:56:50;;;;;;;2.60;1.30;;;;;;;12.76;nan;98083.63;4901331;29;20241;-77
2023/10/28 04:59:16;;;;;;;1.10;0.80;;;;;;;12.76;nan;98086.25;4898507;29;20222;-78
2023/10/28 05:01:41;;;;;;;1.10;0.80;;;;;;;12.76;nan;98087.09;4900544;29;20700;-76
2023/10/28 05:04:09;;;;;;;2.00;0.90;;;;;;;12.76;nan;98092.34;4903671;29;20213;-76
2023/10/28 05:06:35;;;;;;;2.97;1.00;;;;;;;12.76;nan;98096.81;4902822;29;20273;-77
2023/10/28 05:09:01;;;;;;;2.60;1.07;;;;;;;12.77;nan;98101.94;4902696;29;20265;-77
2023/10/28 05:11:26;;;;;;;1.33;0.80;;;;;;;12.77;nan;98109.00;4902492;29;20484;-76
2023/10/28 05:13:52;;;;;;;2.47;1.00;;;;;;;12.76;nan;98102.91;4900613;29;20944;-77
2023/10/28 05:16:19;;;;;;;2.27;0.80;;;;;;;12.78;nan;98102.75;4895215;29;20766;-77
2023/10/28 05:18:45;;;;;;;2.15;1.70;;;;;;;12.79;nan;98099.13;4900171;29;20771;-78
2023/10/28 05:21:11;;;;;;;1.33;1.00;;;;;;;12.77;nan;98094.03;4901228;29;20202;-76
2023/10/28 05:23:37;;;;;;;0.70;0.60;;;;;;;12.80;nan;98103.44;4898431;29;20800;-77
2023/10/28 05:26:04;;;;;;;1.40;1.08;;;;;;;12.80;nan;98100.81;4897300;29;20461;-76
2023/10/28 05:28:30;;;;;;;2.55;0.90;;;;;;;12.82;nan;98098.84;4893072;29;20202;-77
2023/10/28 05:30:55;;;;;;;1.40;0.90;;;;;;;12.83;nan;98101.34;4900767;29;20221;-79
2023/10/28 05:33:21;;;;;;;1.00;0.90;;;;;;;12.83;nan;98103.16;4896586;29;20202;-77
2023/10/28 05:35:48;;;;;;;1.07;0.97;;;;;;;12.81;nan;98107.72;4899427;29;20214;-77
2023/10/28 05:38:14;;;;;;;1.10;1.00;;;;;;;12.83;nan;98113.69;4900540;29;20220;-78
2023/10/28 05:40:39;;;;;;;1.20;0.97;;;;;;;12.81;nan;98118.28;4899155;29;20677;-76
2023/10/28 05:43:05;;;;;;;3.87;1.20;;;;;;;12.80;nan;98119.25;4895257;29;20293;-77
2023/10/28 05:45:30;;;;;;;3.10;1.20;;;;;;;12.79;nan;98118.41;4898707;29;20198;-76
2023/10/28 05:47:55;;;;;;;2.03;0.90;;;;;;;12.76;nan;98121.34;4900156;29;20207;-76
2023/10/28 05:50:21;;;;;;;2.57;1.10;;;;;;;12.75;nan;98126.78;4905296;29;20234;-77
2023/10/28 05:52:47;;;;;;;1.73;0.90;;;;;;;12.73;nan;98131.34;4902041;29;20193;-77
2023/10/28 05:55:12;;;;;;;1.20;0.87;;;;;;;12.73;nan;98128.72;4899359;29;20746;-78
2023/10/28 05:57:39;;;;;;;1.87;0.80;;;;;;;12.73;nan;98128.72;4899307;29;21303;-77
2023/10/28 06:00:09;;;;;;;1.73;0.90;;;;;;;12.70;nan;98136.91;4900661;29;20225;-77
2023/10/28 06:02:36;;;;;;;1.38;1.20;;;;;;;12.69;nan;98124.69;4898098;29;20638;-78
2023/10/28 06:05:03;;;;;;;6.45;0.90;;;;;;;12.69;nan;98129.97;4895766;29;20216;-77
2023/10/28 06:07:29;;;;;;;1.40;1.10;;;;;;;12.66;nan;98128.47;4900057;29;20276;-77
2023/10/28 06:09:55;;;;;;;1.40;0.80;;;;;;;12.65;nan;98136.53;4898189;29;20207;-76
2023/10/28 06:12:20;;;;;;;0.80;0.80;;;;;;;12.63;nan;98134.03;4898584;29;20206;-76
2023/10/28 06:14:46;;;;;;;5.03;2.30;;;;;;;12.61;nan;98138.63;4898124;29;20207;-78
2023/10/28 06:17:13;;;;;;;3.73;1.00;;;;;;;12.57;nan;98138.09;4901470;29;20797;-77
2023/10/28 06:19:40;;;;;;;2.60;1.10;;;;;;;12.56;nan;98140.88;4897270;29;20221;-77
2023/10/28 06:22:07;;;;;;;5.60;1.02;;;;;;;12.52;nan;98139.50;4898676;29;20334;-77
2023/10/28 06:24:32;;;;;;;1.60;0.95;;;;;;;12.49;nan;98145.88;4897834;29;20581;-77
2023/10/28 06:26:59;;;;;;;2.03;1.20;;;;;;;12.47;nan;98154.91;4896682;29;20206;-76
2023/10/28 06:29:25;;;;;;;0.75;0.75;;;;;;;12.46;nan;98153.25;4899210;29;20206;-77
2023/10/28 06:31:51;;;;;;;1.10;1.00;;;;;;;12.45;nan;98147.16;4891079;29;20709;-77
2023/10/28 06:34:17;;;;;;;1.30;1.00;;;;;;;12.44;nan;98145.47;4894691;29;20197;-77
2023/10/28 06:36:42;;;;;;;1.57;1.00;;;;;;;12.43;nan;98149.09;4897734;29;20692;-77
2023/10/28 06:39:10;;;;;;;1.63;1.10;;;;;;;12.45;nan;98157.69;4894334;29;20237;-76
2023/10/28 06:41:36;;;;;;;1.23;1.10;;;;;;;12.47;nan;98153.09;4889572;29;20222;-77
2023/10/28 06:44:06;;;;;;;4.07;0.93;;;;;;;12.49;nan;98160.84;4888221;29;20218;-77
2023/10/28 06:46:34;;;;;;;1.40;1.08;;;;;;;12.50;nan;98152.81;4889830;29;20226;-77
2023/10/28 06:48:59;;;;;;;1.10;1.00;;;;;;;12.52;nan;98164.03;4887132;29;20598;-76
2023/10/28 06:51:25;;;;;;;1.53;0.90;;;;;;;12.54;nan;98162.09;4892177;29;20744;-78
2023/10/28 06:53:50;;;;;;;1.63;1.10;;;;;;;12.57;nan;98164.41;4893618;29;20202;-77
2023/10/28 06:56:16;;;;;;;4.07;0.90;;;;;;;12.62;nan;98174.53;4893653;29;22165;-77
2023/10/28 06:58:41;;;;;;;1.43;1.10;;;;;;;12.67;nan;98166.19;4888118;29;20231;-77
2023/10/28 07:01:09;;;;;;;1.33;1.00;;;;;;;12.74;nan;98170.72;4887228;29;20323;-76
2023/10/28 07:03:38;;;;;;;5.18;1.60;;;;;;;12.81;nan;98165.69;4888040;29;20226;-77
2023/10/28 07:06:04;;;;;;;1.55;1.00;;;;;;;12.89;nan;98165.78;4891713;29;20317;-77
2023/10/28 07:08:33;;;;;;;1.10;0.80;;;;;;;12.96;nan;98180.03;4884299;29;20278;-78
2023/10/28 07:10:59;;;;;;;1.30;1.08;;;;;;;13.04;nan;98171.38;4900424;29;20228;-77
2023/10/28 07:13:26;;;;;;;2.35;1.55;;;;;;;13.10;nan;98178.72;4890085;29;20206;-77
2023/10/28 07:16:04;;;;;;;0.80;0.80;;;;;;;13.16;nan;98180.75;4896855;29;20203;-77
2023/10/28 07:18:30;;;;;;;3.03;1.13;;;;;;;13.21;nan;98182.94;4900493;29;20732;-77
2023/10/28 07:20:57;;;;;;;3.15;1.10;;;;;;;13.27;nan;98187.63;4899061;29;20210;-75
2023/10/28 07:23:26;;;;;;;1.00;0.90;;;;;;;13.34;nan;98198.41;4901025;29;20593;-77
2023/10/28 07:25:54;;;;;;;2.67;1.33;;;;;;;13.42;nan;98193.22;4893636;29;20562;-77
2023/10/28 07:28:20;;;;;;;4.03;1.00;;;;;;;13.49;nan;98197.75;4898487;29;20346;-77
2023/10/28 07:30:48;;;;;;;5.70;1.40;;;;;;;13.57;nan;98198.81;4899014;29;20214;-78
2023/10/28 07:33:14;;;;;;;3.55;1.30;;;;;;;13.65;nan;98207.63;4896503;29;20453;-77
2023/10/28 07:35:50;;;;;;;3.40;1.30;;;;;;;13.72;nan;98207.84;4881071;29;20206;-76
2023/10/28 07:38:16;;;;;;;1.52;1.10;;;;;;;13.79;nan;98208.88;4895376;29;20562;-76
2023/10/28 07:40:43;;;;;;;1.63;1.10;;;;;;;13.84;nan;98203.16;4896918;29;20221;-76
2023/10/28 07:43:10;;;;;;;1.67;1.10;;;;;;;13.89;nan;98212.28;4900479;29;20205;-76
2023/10/28 07:45:35;;;;;;;2.00;1.00;;;;;;;13.95;nan;98216.09;4900518;29;20634;-77
2023/10/28 07:48:01;;;;;;;3.23;2.63;;;;;;;14.01;nan;98225.22;4898610;29;20210;-76
2023/10/28 07:50:26;;;;;;;4.70;1.10;;;;;;;14.04;nan;98217.00;4902640;29;20229;-76
2023/10/28 07:52:52;;;;;;;3.57;1.60;;;;;;;14.09;nan;98225.28;4901522;29;20210;-76
2023/10/28 07:55:17;;;;;;;1.63;1.10;;;;;;;14.11;nan;98224.16;4901632;29;20205;-76
2023/10/28 07:57:43;;;;;;;4.20;1.30;;;;;;;14.14;nan;98228.31;4896754;29;20777;-76
2023/10/28 08:00:11;;;;;;;3.63;1.60;;;;;;;14.17;nan;98234.09;4896972;29;20201;-76
2023/10/28 08:02:44;;;;;;;3.92;1.45;;;;;;;14.23;nan;98231.81;4902720;29;20317;-76
2023/10/28 08:05:10;;;;;;;2.45;1.33;;;;;;;14.29;nan;98229.41;4907371;29;20214;-76
2023/10/28 08:07:36;;;;;;;1.13;1.03;;;;;;;14.36;nan;98232.25;4897243;29;20213;-76
2023/10/28 08:10:02;;;;;;;1.83;1.20;;;;;;;14.39;nan;98231.94;4900962;29;20454;-76
2023/10/28 08:12:27;;;;;;;3.57;1.20;;;;;;;14.42;nan;98239.56;4901905;29;20729;-77
2023/10/28 08:14:53;;;;;;;2.03;1.67;;;;;;;14.44;nan;98231.47;4902731;29;20581;-76
2023/10/28 08:17:18;;;;;;;1.50;1.00;;;;;;;14.46;nan;98222.41;4903105;29;20194;-77
2023/10/28 08:19:44;;;;;;;2.93;1.13;;;;;;;14.50;nan;98222.91;4902904;29;20485;-77
2023/10/28 08:22:12;;;;;;;2.07;1.40;;;;;;;14.58;nan;98220.34;4900555;29;20265;-77
2023/10/28 08:24:37;;;;;;;3.05;1.25;;;;;;;14.66;nan;98212.47;4903099;29;20222;-76
2023/10/28 08:27:03;;;;;;;1.60;1.10;;;;;;;14.75;nan;98208.06;4902238;29;20218;-80
2023/10/28 08:29:28;;;;;;;2.07;1.13;;;;;;;14.85;nan;98215.84;4910333;29;20210;-80
2023/10/28 08:31:54;;;;;;;3.60;1.53;;;;;;;14.99;nan;98212.63;4913747;29;20558;-80
2023/10/28 08:34:19;;;;;;;3.13;1.30;;;;;;;15.10;nan;98214.16;4910391;29;20203;-81
2023/10/28 08:36:45;;;;;;;1.83;1.20;;;;;;;15.20;nan;98214.81;4908890;29;20210;-81
2023/10/28 08:39:13;;;;;;;3.87;1.40;;;;;;;15.29;nan;98215.69;4906645;29;20289;-80
2023/10/28 08:41:40;;;;;;;2.78;1.10;;;;;;;15.39;nan;98200.47;4916193;29;20214;-85
2023/10/28 08:44:07;;;;;;;2.88;1.20;;;;;;;15.60;nan;98207.94;4918193;29;20245;-83
2023/10/28 08:46:34;;;;;;;3.08;0.90;;;;;;;15.99;nan;98202.06;4916994;29;20648;-85
2023/10/28 08:49:00;;;;;;;2.47;1.33;;;;;;;16.53;nan;98202.31;4917443;29;20230;-81
2023/10/28 08:51:26;;;;;;;1.10;0.93;;;;;;;17.01;nan;98203.97;4901516;29;20210;-79
2023/10/28 08:53:55;;;;;;;2.45;1.30;;;;;;;17.28;nan;98201.81;4909379;29;20807;-78
2023/10/28 08:56:24;;;;;;;1.90;1.10;;;;;;;17.25;nan;98205.69;4908358;29;20210;-79
2023/10/28 08:58:52;;;;;;;1.75;1.20;;;;;;;17.07;nan;98199.81;4869619;29;20207;-80
2023/10/28 09:01:22;;;;;;;2.35;1.25;;;;;;;16.84;nan;98205.03;4906678;29;20239;-80
2023/10/28 09:03:52;;;;;;;2.03;1.27;;;;;;;16.63;nan;98207.38;4906688;29;20188;-79
2023/10/28 09:06:20;;;;;;;2.95;1.10;;;;;;;16.43;nan;98214.91;4907257;29;20184;-81
2023/10/28 09:08:46;;;;;;;2.88;1.10;;;;;;;16.31;nan;98217.06;4904146;29;20211;-79
2023/10/28 09:11:12;;;;;;;3.80;1.30;;;;;;;16.23;nan;98207.31;4907504;29;20850;-79
2023/10/28 09:13:38;;;;;;;1.20;0.83;;;;;;;16.20;nan;98209.47;4906039;29;20294;-78
2023/10/28 09:16:04;;;;;;;2.15;1.00;;;;;;;16.17;nan;98213.28;4906961;29;20451;-78
2023/10/28 09:18:39;;;;;;;1.90;1.00;;;;;;;16.22;nan;98204.84;4907788;29;20223;-79
2023/10/28 09:21:09;;;;;;;1.27;1.15;;;;;;;16.23;nan;98209.97;4908349;29;20300;-81
2023/10/28 09:23:35;;;;;;;2.58;1.10;;;;;;;16.27;nan;98203.34;4908669;29;20226;-80
2023/10/28 09:26:01;;;;;;;3.20;1.27;;;;;;;16.31;nan;98207.31;4908270;29;20204;-80
2023/10/28 09:28:27;;;;;;;3.97;1.27;;;;;;;16.33;nan;98207.13;4905250;29;20206;-80
2023/10/28 09:30:53;;;;;;;1.98;0.80;;;;;;;16.37;nan;98203.16;4902239;29;20267;-81
2023/10/28 09:33:19;;;;;;;1.90;1.20;;;;;;;16.41;nan;98208.94;4905617;29;20222;-81
2023/10/28 09:35:45;;;;;;;3.00;1.45;;;;;;;16.43;nan;98197.19;4904002;29;20208;-79
2023/10/28 09:38:11;;;;;;;3.85;1.45;;;;;;;16.46;nan;98201.31;4908597;29;20214;-80
2023/10/28 09:40:37;;;;;;;3.53;1.30;;;;;;;16.49;nan;98214.22;4882231;29;20215;-80
2023/10/28 09:43:04;;;;;;;1.87;1.43;;;;;;;16.51;nan;98215.72;4897270;29;20459;-81
2023/10/28 09:45:30;;;;;;;4.28;1.52;;;;;;;16.53;nan;98215.56;4894568;29;20446;-78
2023/10/28 09:48:05;;;;;;;1.55;1.23;;;;;;;16.57;nan;98215.03;4899889;29;20209;-78
2023/10/28 09:50:31;;;;;;;3.90;1.65;;;;;;;16.58;nan;98216.69;4895996;29;20219;-79
2023/10/28 09:52:57;;;;;;;3.88;1.55;;;;;;;16.64;nan;98214.38;4895603;29;20227;-79
2023/10/28 09:55:32;;;;;;;3.05;1.50;;;;;;;16.68;nan;98213.84;4903329;29;20231;-79
2023/10/28 09:58:41;;;;;;;4.38;1.48;;;;;;;16.76;nan;98218.28;4904031;29;20213;-80
2023/10/28 10:01:16;;;;;;;2.35;1.98;;;;;;;16.84;nan;98215.63;4906045;29;20992;-79
2023/10/28 10:03:56;;;;;;;2.80;1.40;;;;;;;16.89;nan;98213.28;4904228;29;20275;-79
2023/10/28 10:06:23;;;;;;;5.73;1.50;;;;;;;16.94;nan;98203.00;4908983;29;20216;-79
2023/10/28 10:08:50;;;;;;;3.03;1.50;;;;;;;17.01;nan;98198.66;4905944;29;20981;-79
2023/10/28 10:11:23;;;;;;;1.63;1.30;;;;;;;17.12;nan;98201.91;4907395;29;20281;-80
2023/10/28 10:13:49;;;;;;;2.17;1.37;;;;;;;17.25;nan;98210.13;4905636;29;20460;-81
2023/10/28 10:16:27;;;;;;;3.93;2.17;;;;;;;17.41;nan;98198.59;4910449;29;20473;-80
2023/10/28 10:18:55;;;;;;;3.17;1.23;;;;;;;17.57;nan;98205.63;4908174;29;20213;-79
2023/10/28 10:21:20;;;;;;;2.40;1.00;;;;;;;17.67;nan;98206.22;4909901;29;20237;-80
2023/10/28 10:23:50;;;;;;;8.60;1.30;;;;;;;17.73;nan;98200.19;4907870;29;20930;-79
2023/10/28 10:26:20;;;;;;;3.67;1.40;;;;;;;17.69;nan;98209.53;4901705;29;20230;-79
2023/10/28 10:28:46;;;;;;;1.83;1.10;;;;;;;17.65;nan;98208.22;4908670;29;20466;-80
2023/10/28 10:31:12;;;;;;;2.40;1.27;;;;;;;17.57;nan;98205.63;4908088;29;20481;-79
2023/10/28 10:33:38;;;;;;;1.70;1.13;;;;;;;17.51;nan;98206.34;4906205;29;20195;-79
2023/10/28 10:36:14;;;;;;;4.20;1.00;;;;;;;17.43;nan;98193.94;4900375;29;20214;-79
2023/10/28 10:38:40;;;;;;;5.10;1.67;;;;;;;17.36;nan;98198.28;4908533;29;20998;-79
2023/10/28 10:41:05;;;;;;;4.07;1.90;;;;;;;17.32;nan;98192.53;4910834;29;20471;-79
2023/10/28 10:43:32;;;;;;;1.67;1.23;;;;;;;17.31;nan;98196.19;4908360;29;20207;-79
2023/10/28 10:45:58;;;;;;;3.60;1.17;;;;;;;17.30;nan;98199.00;4905304;29;20236;-79
2023/10/28 10:48:25;;;;;;;3.60;2.23;;;;;;;17.32;nan;98195.19;4903413;29;20466;-80
2023/10/28 10:50:50;;;;;;;2.87;1.40;;;;;;;17.31;nan;98201.50;4903502;29;20478;-80
2023/10/28 10:53:16;;;;;;;5.20;3.80;;;;;;;17.37;nan;98192.81;4905207;29;20462;-79
2023/10/28 10:55:41;;;;;;;3.10;2.27;;;;;;;17.42;nan;98192.31;4903149;29;20213;-79
2023/10/28 10:58:07;;;;;;;5.40;3.40;;;;;;;17.50;nan;98189.59;4903497;29;20198;-78
2023/10/28 11:00:33;;;;;;;6.60;4.23;;;;;;;17.63;nan;98191.63;4902341;29;20217;-78
2023/10/28 11:03:00;;;;;;;7.17;3.27;;;;;;;17.71;nan;98188.94;4902641;29;20462;-77
2023/10/28 11:05:30;;;;;;;7.67;4.13;;;;;;;17.77;nan;98182.06;4901252;29;20210;-77
2023/10/28 11:07:56;;;;;;;15.00;8.13;;;;;;;17.79;nan;98185.41;4899907;29;20981;-77
2023/10/28 11:10:25;;;;;;;17.43;12.40;;;;;;;17.79;nan;98202.16;4899337;29;21000;-77
2023/10/28 11:12:52;;;;;;;8.60;2.57;;;;;;;17.73;nan;98194.88;4900523;29;20589;-77
2023/10/28 11:15:21;;;;;;;2.40;1.83;;;;;;;17.67;nan;98182.34;4900892;29;20458;-77
2023/10/28 11:17:47;;;;;;;2.90;2.03;;;;;;;17.64;nan;98180.84;4898233;29;20997;-77
2023/10/28 11:20:19;;;;;;;3.10;2.00;;;;;;;17.65;nan;98179.03;4898424;29;20887;-77
2023/10/28 11:22:45;;;;;;;8.00;4.30;;;;;;;17.64;nan;98178.19;4896760;29;20469;-77
2023/10/28 11:25:11;;;;;;;11.90;5.70;;;;;;;17.65;nan;98176.38;4899497;29;20584;-77
2023/10/28 11:27:38;;;;;;;4.77;2.40;;;;;;;17.65;nan;98168.41;4899566;29;20565;-77
2023/10/28 11:30:05;;;;;;;7.87;3.80;;;;;;;17.68;nan;98171.50;4898751;29;20629;-77
2023/10/28 11:32:38;;;;;;;4.33;2.83;;;;;;;17.76;nan;98175.94;4898937;29;20516;-78
2023/10/28 11:35:04;;;;;;;63.53;35.47;;;;;;;17.88;nan;98173.75;4905891;29;20833;-77
2023/10/28 11:37:29;;;;;;;62.20;49.07;;;;;;;17.91;nan;98165.41;4899225;29;21222;-78
2023/10/28 11:39:55;;;;;;;24.70;22.87;;;;;;;17.92;nan;98151.94;4900315;29;20210;-77
2023/10/28 11:42:20;;;;;;;7.20;4.70;;;;;;;17.90;nan;98151.31;4895854;29;20214;-77
2023/10/28 11:44:51;;;;;;;7.00;5.73;;;;;;;17.86;nan;98152.66;4898842;29;20592;-77
2023/10/28 11:47:19;;;;;;;12.00;6.93;;;;;;;17.81;nan;98143.56;4893114;29;20214;-77